CheckWX is a tool to help pilots better visualize weather data.  It is not intended as a substitute for an official pre-flight weather briefing.

13:57:50 UTC

KLCI METAR
Laconia Municipal Airport
Laconia, New Hampshire, USA
Current

31 mins ago

KLCI 261327Z AUTO 05006KT 10SM OVC014 07/06 A2992 RMK AO2 P0001 PWINO $
Observed
Apr-26 @ 13:27 UTC
Wind
  • 050° at 6 KTS
Visibility
10 SM
Flight Rules
MVFR
Cloud Levels
  • Overcast at 1,400' AGL
Temperature
C / 45°F
Dewpoint
C / 43°F
Humidity
93%
Altimeter
29.92" Hg
Pressure
1013.22 hPa
Current Rain
0.01"
Previous

1 hour ago

KLCI 261256Z AUTO 05007KT 10SM BKN016 OVC055 07/06 A2992 RMK AO2 SLP152 T00670056 PWINO $
Observed
Apr-26 @ 12:56 UTC
Wind
  • 050° at 7 KTS
Visibility
10 SM
Flight Rules
MVFR
Cloud Levels
  • Broken at 1,600' AGL
  • Overcast at 5,500' AGL
Temperature
C / 45°F
Dewpoint
C / 43°F
Humidity
93%
Altimeter
29.92" Hg
Pressure
1013.22 hPa
Previous

1 hour ago

KLCI 261243Z AUTO 06007KT 10SM SCT018 OVC055 07/06 A2993 RMK AO2 PWINO $
Observed
Apr-26 @ 12:43 UTC
Wind
  • 060° at 7 KTS
Visibility
10 SM
Flight Rules
VFR
Cloud Levels
  • Scattered at 1,800' AGL
  • Overcast at 5,500' AGL
Temperature
C / 45°F
Dewpoint
C / 43°F
Humidity
93%
Altimeter
29.93" Hg
Pressure
1013.52 hPa